首页
METAR-TAF:

METAR-TAF

机场 :

尤里馬瓜斯, 秘鲁

纬度: 05-54S, 经度: 076-05W, 海拔: 179米

当前天气观测

该预报发布于30分钟前的19:00 UTC
风速5节,风向西
温度 30°C
湿度 75%
气压 1007 hPa
能見度: 8000
散云层高于1500英尺
附近有阵雨

METAR: SPMS 151900Z 26005KT 8000 VCSH SCT015 30/25 Q1007 RMK SH NW-S BIRD HAZARD RWY 09/27 PP000

时间: 14:30 (19:30 UTC)

预报

该预报发布于2小时和30分钟前的17:00 UTC
预报有效从15日的 18点(UTC)到 16日的 18点(UTC)
风速6节,风向
能见度10公里或以上
散云层高于1500英尺
散云层高于10000英尺
短暂存在
从 15日的 20点(UTC)到 15日的 23点(UTC)
能見度: 5000
散云层高于1500英尺
少量云层高于2000英尺, 塔状积云.
多云层高于8000英尺
阵雨
短暂存在
从 16日的 12点(UTC)到 16日的 15点(UTC)
能見度: 5000
多云层高于1000英尺
多云层高于10000英尺
雨, 毛毛雨

TAF: SPMS 151700Z 1518/1618 08006KT 9999 SCT015 SCT100 TX32/1520Z TN23/1611Z TEMPO 1520/1523 5000 SHRA SCT015 FEW020TCU BKN080 TEMPO 1612/1615 5000 RADZ BKN010 BKN100

超过4000个机场的气象观测和天气预报(METAR&TAF报告)。

可查询的气象台以黄色和红色小点在地图上表示。

将鼠标移到小点上方,可查看气象台名称。

然后点击查看天气观测和预报。

如需切换地图:点击带黑十字的绿色按钮放大地图;点击带横线的绿色按钮缩小地图;或者点击绿色箭头查看邻近地区的地图。


METAR-TAF: